Time;durP1;ratioP1;P1;durP2;ratioP2;P2;SDS_P1;SDS_P2;PMS_P1;PMS_P2;Temp;Humidity;BMP_temperature;BMP_pressure;BME280_temperature;BME280_humidity;BME280_pressure;Samples;Min_cycle;Max_cycle;Signal;HPM_P1;HPM_P2
2022/11/17 00:01:08;;;;;;;67.32;45.50;;;;;;;8.96;100.00;99364.56;5007343;28;20128;-78
2022/11/17 00:03:34;;;;;;;67.45;43.47;;;;;;;8.68;100.00;99321.25;5015820;28;20074;-78
2022/11/17 00:06:06;;;;;;;69.28;45.47;;;;;;;8.77;100.00;99315.94;5007744;28;20140;-75
2022/11/17 00:08:32;;;;;;;61.83;42.67;;;;;;;8.86;100.00;99336.78;5006955;28;20437;-74
2022/11/17 00:10:59;;;;;;;65.38;42.55;;;;;;;8.62;100.00;99270.78;5006222;28;20042;-75
2022/11/17 00:16:14;;;;;;;61.33;41.45;;;;;;;8.73;100.00;99315.09;5007686;28;20052;-79
2022/11/17 00:21:27;;;;;;;65.63;42.58;;;;;;;8.22;100.00;99190.13;5004924;28;20052;-75
2022/11/17 00:23:53;;;;;;;62.47;42.05;;;;;;;8.84;100.00;99307.16;4990935;28;20049;-78
2022/11/17 00:26:23;;;;;;;66.55;42.92;;;;;;;9.02;100.00;99348.81;4988284;28;20765;-78
2022/11/17 00:28:53;;;;;;;61.78;43.78;;;;;;;8.71;100.00;99308.16;5005018;28;20054;-84
2022/11/17 00:34:04;;;;;;;70.57;44.85;;;;;;;8.89;100.00;99294.88;5008307;28;20092;-75
2022/11/17 00:36:36;;;;;;;58.03;42.03;;;;;;;8.24;100.00;99175.28;5006652;28;20096;-75
2022/11/17 00:39:02;;;;;;;65.60;44.08;;;;;;;8.77;100.00;99266.25;5007243;28;20053;-75
2022/11/17 00:41:28;;;;;;;64.50;41.92;;;;;;;8.16;100.00;99157.97;5006680;28;20079;-74
2022/11/17 00:43:55;;;;;;;60.50;42.88;;;;;;;9.06;100.00;99313.00;5006055;28;20045;-76
2022/11/17 00:46:20;;;;;;;66.65;41.40;;;;;;;8.92;100.00;99287.00;5005053;28;20057;-77
2022/11/17 00:48:46;;;;;;;65.28;42.58;;;;;;;8.29;100.00;99192.66;5005913;28;20049;-75
2022/11/17 00:51:11;;;;;;;66.25;42.20;;;;;;;8.27;100.00;99178.75;5006938;28;20606;-81
2022/11/17 00:53:37;;;;;;;63.88;41.20;;;;;;;8.86;100.00;99284.47;5006803;28;20026;-78
2022/11/17 00:56:02;;;;;;;63.28;42.33;;;;;;;9.03;100.00;99320.88;5006997;28;20037;-76
2022/11/17 00:58:28;;;;;;;61.47;42.83;;;;;;;9.09;100.00;99310.34;5007997;28;20054;-76
2022/11/17 01:00:53;;;;;;;64.25;41.55;;;;;;;8.99;100.00;99307.00;5007770;28;20508;-75
2022/11/17 01:03:19;;;;;;;67.43;46.42;;;;;;;8.80;100.00;99268.81;5009324;28;20042;-78
2022/11/17 01:05:45;;;;;;;67.20;46.25;;;;;;;9.02;100.00;99296.47;5006782;28;20060;-76
2022/11/17 01:08:11;;;;;;;59.33;42.65;;;;;;;8.93;100.00;99264.34;5000481;28;20042;-74
2022/11/17 01:10:36;;;;;;;61.60;42.83;;;;;;;8.54;100.00;99167.16;4992143;28;20081;-77
2022/11/17 01:13:03;;;;;;;70.75;41.85;;;;;;;8.86;100.00;99232.16;4999358;28;20050;-79
2022/11/17 01:15:29;;;;;;;63.60;42.67;;;;;;;8.33;100.00;99145.56;5011099;28;20121;-74
2022/11/17 01:17:54;;;;;;;54.75;37.10;;;;;;;8.64;100.00;99185.34;5011768;28;20054;-83
2022/11/17 01:20:20;;;;;;;59.03;40.72;;;;;;;9.24;100.00;99273.50;5007902;28;20513;-77
2022/11/17 01:22:45;;;;;;;65.45;44.17;;;;;;;8.56;100.00;99152.31;4996908;28;20043;-76
2022/11/17 01:25:11;;;;;;;68.03;41.88;;;;;;;8.79;100.00;99191.25;5014718;28;20034;-74
2022/11/17 01:27:36;;;;;;;62.25;42.53;;;;;;;8.82;100.00;99197.28;5006575;28;20046;-76
2022/11/17 01:30:03;;;;;;;72.32;43.42;;;;;;;8.60;100.00;99154.88;4996975;28;20608;-77
2022/11/17 01:32:28;;;;;;;67.32;45.92;;;;;;;8.69;100.00;99163.50;5003225;28;20049;-75
2022/11/17 01:34:53;;;;;;;62.55;41.53;;;;;;;9.34;100.00;99268.16;5011714;28;20041;-74
2022/11/17 01:37:19;;;;;;;62.85;43.10;;;;;;;9.29;100.00;99253.41;5009480;28;20087;-76
2022/11/17 01:39:45;;;;;;;56.85;41.38;;;;;;;9.36;100.00;99267.25;5010381;28;20046;-74
2022/11/17 01:42:15;;;;;;;70.82;44.97;;;;;;;8.68;100.00;99136.47;5006669;28;20124;-74
2022/11/17 01:44:43;;;;;;;61.80;44.55;;;;;;;9.18;100.00;99244.81;4994829;28;20057;-76
2022/11/17 01:47:27;;;;;;;57.70;43.28;;;;;;;9.14;100.00;99245.75;5007153;28;20099;-75
2022/11/17 01:50:44;;;;;;;66.20;41.10;;;;;;;9.40;100.00;99237.53;5013178;28;20058;-75
2022/11/17 01:53:14;;;;;;;53.30;41.03;;;;;;;9.34;100.00;99236.75;4963005;28;20045;-77
2022/11/17 01:56:03;;;;;;;65.13;40.38;;;;;;;9.39;100.00;99237.53;4966056;28;20134;-74
2022/11/17 01:58:39;;;;;;;74.90;42.88;;;;;;;9.07;100.00;99183.91;4967333;28;20163;-77
2022/11/17 02:01:04;;;;;;;61.75;40.63;;;;;;;8.75;100.00;99138.09;5008744;28;20057;-77
2022/11/17 02:03:33;;;;;;;66.90;40.20;;;;;;;8.68;100.00;99119.91;5016442;28;20038;-75
2022/11/17 02:06:15;;;;;;;66.68;41.67;;;;;;;8.72;100.00;99134.69;5009780;28;20133;-75
2022/11/17 02:08:45;;;;;;;67.63;43.43;;;;;;;9.07;100.00;99189.16;4999505;28;20064;-75
2022/11/17 02:11:16;;;;;;;56.53;38.92;;;;;;;9.14;100.00;99226.56;5005114;28;20469;-73
2022/11/17 02:13:43;;;;;;;61.95;43.15;;;;;;;8.54;100.00;99115.72;5012814;28;20103;-76
2022/11/17 02:16:14;;;;;;;63.95;41.13;;;;;;;9.18;100.00;99231.75;5020075;28;20103;-76
2022/11/17 02:18:41;;;;;;;70.40;43.20;;;;;;;9.16;100.00;99201.25;4997244;28;20053;-76
2022/11/17 02:21:42;;;;;;;81.18;42.30;;;;;;;8.48;100.00;99104.50;4997128;28;20042;-76
2022/11/17 02:24:34;;;;;;;73.97;44.50;;;;;;;9.29;100.00;99221.09;5007674;28;20054;-74
2022/11/17 02:27:21;;;;;;;72.57;45.17;;;;;;;9.27;100.00;99228.09;4997920;28;20057;-77
2022/11/17 02:30:18;;;;;;;73.55;43.95;;;;;;;9.26;100.00;99224.63;5001896;28;20458;-78
2022/11/17 02:32:58;;;;;;;67.50;47.55;;;;;;;9.23;100.00;99231.69;4985101;28;20042;-77
2022/11/17 02:35:50;;;;;;;67.22;42.40;;;;;;;9.26;100.00;99224.63;4999580;28;20116;-77
2022/11/17 02:38:32;;;;;;;56.58;41.03;;;;;;;9.19;100.00;99229.97;4989888;28;20051;-76
2022/11/17 02:41:06;;;;;;;56.92;39.28;;;;;;;9.25;100.00;99219.44;5008140;28;20547;-76
2022/11/17 02:44:03;;;;;;;59.28;42.03;;;;;;;8.55;100.00;99091.31;5003603;28;20061;-77
2022/11/17 02:46:44;;;;;;;57.40;39.38;;;;;;;9.26;100.00;99211.53;4992713;28;20066;-74
2022/11/17 02:49:21;;;;;;;60.67;42.95;;;;;;;8.54;100.00;99080.88;4989814;28;20422;-76
2022/11/17 02:51:56;;;;;;;55.10;41.20;;;;;;;8.67;100.00;99108.59;4988324;28;20053;-75
2022/11/17 02:54:24;;;;;;;60.95;40.47;;;;;;;8.07;100.00;98994.34;4989908;28;20054;-75
2022/11/17 02:56:49;;;;;;;60.40;42.33;;;;;;;8.45;100.00;99051.38;4989301;28;20053;-73
2022/11/17 02:59:18;;;;;;;60.60;41.80;;;;;;;9.15;100.00;99166.34;4989941;28;20458;-77
2022/11/17 03:02:08;;;;;;;59.15;43.42;;;;;;;9.28;100.00;99190.59;5004228;28;20093;-75
2022/11/17 03:04:57;;;;;;;63.80;41.95;;;;;;;9.44;100.00;99201.72;5008326;28;20061;-76
2022/11/17 03:07:44;;;;;;;57.03;40.95;;;;;;;9.29;100.00;99201.06;4987369;28;20050;-75
2022/11/17 03:10:27;;;;;;;59.70;41.00;;;;;;;9.36;100.00;99195.72;4999757;28;20076;-75
2022/11/17 03:13:08;;;;;;;66.65;43.78;;;;;;;9.05;100.00;99143.81;5005362;28;20577;-80
2022/11/17 03:15:58;;;;;;;55.35;38.55;;;;;;;9.33;100.00;99191.38;5022133;28;20544;-78
2022/11/17 03:18:43;;;;;;;62.80;45.45;;;;;;;9.29;100.00;99193.19;5001606;28;20057;-75
2022/11/17 03:21:27;;;;;;;66.30;42.38;;;;;;;9.38;100.00;99193.94;5006785;28;20088;-73
2022/11/17 03:24:12;;;;;;;60.67;42.75;;;;;;;9.37;100.00;99197.47;4994031;28;20050;-76
2022/11/17 03:26:41;;;;;;;65.55;41.88;;;;;;;9.05;100.00;99144.66;5007837;28;20053;-76
2022/11/17 03:29:11;;;;;;;64.00;43.67;;;;;;;8.99;100.00;99134.31;5003107;28;20038;-76
2022/11/17 03:31:40;;;;;;;64.63;42.15;;;;;;;8.68;100.00;99080.69;5001997;28;20148;-75
2022/11/17 03:34:11;;;;;;;69.88;44.20;;;;;;;9.26;100.00;99169.66;5007114;28;20054;-78
2022/11/17 03:36:41;;;;;;;61.28;43.05;;;;;;;9.08;100.00;99141.16;5008863;28;20076;-76
2022/11/17 03:39:22;;;;;;;59.33;40.65;;;;;;;9.28;100.00;99165.28;5009325;28;20038;-76
2022/11/17 03:41:54;;;;;;;52.20;40.75;;;;;;;9.38;100.00;99200.03;4989221;28;20056;-76
2022/11/17 03:44:23;;;;;;;61.05;40.92;;;;;;;9.18;100.00;99155.84;4971850;28;20076;-79
2022/11/17 03:46:53;;;;;;;53.15;41.35;;;;;;;9.27;100.00;99142.63;4987976;28;20051;-75
2022/11/17 03:49:46;;;;;;;64.95;41.75;;;;;;;9.25;100.00;99164.47;5008301;28;20041;-75
2022/11/17 03:52:12;;;;;;;61.10;41.10;;;;;;;9.23;100.00;99164.47;5008074;28;20088;-74
2022/11/17 03:54:38;;;;;;;55.60;38.65;;;;;;;9.27;100.00;99153.09;5007483;28;20038;-76
2022/11/17 03:57:25;;;;;;;60.58;40.78;;;;;;;9.36;100.00;99125.03;5000018;28;20050;-76
2022/11/17 04:00:02;;;;;;;56.83;41.47;;;;;;;8.73;100.00;99019.56;4988316;28;20050;-75
2022/11/17 04:02:28;;;;;;;58.25;40.88;;;;;;;9.31;100.00;99109.38;4970621;28;20057;-73
2022/11/17 04:05:06;;;;;;;53.80;38.22;;;;;;;9.50;100.00;99155.34;4989335;28;20533;-76
2022/11/17 04:07:32;;;;;;;59.65;40.20;;;;;;;8.80;100.00;99021.25;4988972;28;20577;-77
2022/11/17 04:09:57;;;;;;;55.22;42.17;;;;;;;8.35;100.00;99014.88;4989423;28;20632;-77
2022/11/17 04:17:54;;;;;;;62.03;42.35;;;;;;;9.28;100.00;99159.19;4988057;28;20096;-76
2022/11/17 04:20:19;;;;;;;61.42;41.63;;;;;;;8.55;100.00;99033.81;4989369;28;20122;-77
2022/11/17 04:22:45;;;;;;;61.05;42.10;;;;;;;8.53;100.00;99021.66;4991278;28;20043;-75
2022/11/17 04:28:35;;;;;;;58.75;43.30;;;;;;;9.00;100.00;99120.34;4996007;28;20050;-75
2022/11/17 04:30:50;;;;;;;64.05;42.13;;;;;;;9.39;100.00;99149.41;4969604;28;20564;-75
2022/11/17 04:33:16;;;;;;;64.68;43.33;;;;;;;8.71;100.00;99025.72;4972617;28;20081;-79
2022/11/17 04:35:41;;;;;;;62.15;42.80;;;;;;;9.47;100.00;99144.91;5009132;28;20753;-75
2022/11/17 04:38:07;;;;;;;63.13;40.47;;;;;;;8.68;100.00;98999.63;5008953;28;20510;-81
2022/11/17 04:41:52;;;;;;;53.15;40.63;;;;;;;8.22;100.00;98927.97;4988324;28;20090;-76
2022/11/17 04:43:17;;;;;;;65.20;43.60;;;;;;;9.34;100.00;99103.25;4988469;28;20046;-76
2022/11/17 04:45:43;;;;;;;58.17;40.97;;;;;;;8.57;100.00;98969.28;4987143;28;20476;-75
2022/11/17 04:48:08;;;;;;;66.57;41.25;;;;;;;9.39;100.00;99086.59;4993127;28;20778;-74
2022/11/17 04:50:34;;;;;;;56.65;41.53;;;;;;;8.67;100.00;99014.47;4988308;28;20510;-75
2022/11/17 04:52:59;;;;;;;63.25;38.95;;;;;;;8.91;100.00;99054.22;4987240;28;20489;-76
2022/11/17 04:55:24;;;;;;;56.28;40.65;;;;;;;9.26;100.00;99113.84;4991633;28;20623;-77
2022/11/17 04:57:50;;;;;;;63.83;40.55;;;;;;;8.82;100.00;99084.81;5002286;28;20418;-74
2022/11/17 05:00:16;;;;;;;64.32;42.60;;;;;;;8.77;100.00;99101.47;5007116;28;20405;-75
2022/11/17 05:02:41;;;;;;;68.05;47.33;;;;;;;8.18;100.00;98988.97;5019069;28;20349;-73
2022/11/17 05:05:07;;;;;;;64.82;43.97;;;;;;;9.13;100.00;99097.47;5026061;28;20100;-76
2022/11/17 05:07:32;;;;;;;70.82;48.83;;;;;;;8.87;100.00;99069.06;5026767;28;20044;-75
2022/11/17 05:09:58;;;;;;;72.40;47.33;;;;;;;8.15;100.00;98955.06;5019714;28;20053;-77
2022/11/17 05:15:07;;;;;;;81.43;46.17;;;;;;;8.53;100.00;98975.44;5024568;28;20190;-74
2022/11/17 05:17:33;;;;;;;69.47;46.00;;;;;;;8.32;100.00;98923.47;5018488;28;20033;-77
2022/11/17 05:20:00;;;;;;;67.88;47.97;;;;;;;8.62;100.00;98975.31;5007329;28;20033;-76
2022/11/17 05:25:10;;;;;;;77.35;49.95;;;;;;;8.75;100.00;98982.94;5006491;28;20060;-76
2022/11/17 05:27:37;;;;;;;78.78;48.03;;;;;;;8.83;100.00;98979.34;4989065;28;20034;-77
2022/11/17 05:30:05;;;;;;;80.75;48.00;;;;;;;9.32;100.00;99061.41;5006362;28;20053;-78
2022/11/17 05:32:30;;;;;;;71.03;44.88;;;;;;;9.48;100.00;99075.06;5003748;28;20042;-78
2022/11/17 05:34:55;;;;;;;68.13;47.15;;;;;;;9.49;100.00;99076.81;4991333;28;20038;-76
2022/11/17 05:37:22;;;;;;;74.43;48.85;;;;;;;9.54;100.00;99076.75;4996757;28;20100;-74
2022/11/17 05:39:47;;;;;;;77.07;51.75;;;;;;;9.37;100.00;99067.41;4989228;28;20513;-76
2022/11/17 05:42:13;;;;;;;76.43;48.85;;;;;;;8.91;100.00;98946.97;5000855;28;20038;-74
2022/11/17 05:44:38;;;;;;;74.00;47.25;;;;;;;9.51;100.00;99036.63;4988138;28;20493;-76
2022/11/17 05:47:05;;;;;;;76.75;50.55;;;;;;;9.65;100.00;99059.09;5005543;28;20060;-77
2022/11/17 05:49:31;;;;;;;78.63;50.00;;;;;;;9.58;100.00;99044.38;5005389;28;20522;-74
2022/11/17 05:51:56;;;;;;;74.88;51.10;;;;;;;9.40;100.00;99017.63;4997817;28;20129;-74
2022/11/17 05:54:22;;;;;;;90.63;55.10;;;;;;;9.41;100.00;99044.66;5002018;28;20486;-76
2022/11/17 05:57:02;;;;;;;73.35;48.53;;;;;;;9.25;100.00;99049.31;4995332;28;20046;-77
2022/11/17 05:59:40;;;;;;;70.53;50.03;;;;;;;8.70;100.00;98922.03;5001378;28;20037;-76
2022/11/17 06:02:11;;;;;;;83.97;51.58;;;;;;;9.16;100.00;98960.50;4988468;28;20405;-76
2022/11/17 06:04:37;;;;;;;76.53;45.85;;;;;;;9.59;100.00;99027.75;5001530;28;20592;-75
2022/11/17 06:07:04;;;;;;;68.78;48.13;;;;;;;9.64;100.00;99059.97;4987084;28;20045;-74
2022/11/17 06:09:33;;;;;;;77.53;51.33;;;;;;;9.07;100.00;98938.81;4977630;28;20119;-75
2022/11/17 06:11:59;;;;;;;107.18;63.58;;;;;;;9.44;100.00;99070.81;5007347;28;20085;-74
2022/11/17 06:14:24;;;;;;;87.50;62.97;;;;;;;8.68;100.00;98949.94;4996872;28;21428;-77
2022/11/17 06:16:55;;;;;;;83.05;57.45;;;;;;;8.35;100.00;98955.63;4986696;28;20045;-73
2022/11/17 06:19:33;;;;;;;87.15;58.47;;;;;;;8.21;100.00;98934.91;5005803;28;20076;-73
2022/11/17 06:21:59;;;;;;;94.28;53.08;;;;;;;9.04;100.00;99066.22;5005583;28;20046;-75
2022/11/17 06:24:25;;;;;;;74.78;52.83;;;;;;;8.42;100.00;98951.22;5003121;28;20060;-76
2022/11/17 06:26:51;;;;;;;76.22;50.17;;;;;;;8.35;100.00;98915.56;5009342;28;20038;-78
2022/11/17 06:29:17;;;;;;;90.57;56.72;;;;;;;9.07;100.00;99043.47;5009980;28;20084;-75
2022/11/17 06:31:44;;;;;;;75.80;51.08;;;;;;;8.65;100.00;98954.34;5009164;28;20520;-75
2022/11/17 06:34:10;;;;;;;79.95;52.95;;;;;;;8.97;100.00;98999.19;5009600;28;20038;-74
2022/11/17 06:36:35;;;;;;;85.05;53.35;;;;;;;8.61;100.00;98950.03;5008627;28;20615;-75
2022/11/17 06:39:01;;;;;;;73.50;51.15;;;;;;;9.48;100.00;99086.44;5008762;28;20042;-76
2022/11/17 06:41:26;;;;;;;78.00;50.78;;;;;;;9.50;100.00;99096.84;5007982;28;20048;-77
2022/11/17 06:43:51;;;;;;;68.57;49.05;;;;;;;9.24;100.00;99071.13;5007778;28;20095;-77
2022/11/17 06:46:18;;;;;;;73.80;48.78;;;;;;;8.79;100.00;99002.94;5008867;28;20085;-84
2022/11/17 06:48:44;;;;;;;73.32;50.50;;;;;;;9.53;100.00;99057.56;5018354;28;20051;-77
2022/11/17 06:51:09;;;;;;;80.10;53.53;;;;;;;9.56;100.00;99067.09;5028218;28;20038;-76
2022/11/17 06:53:35;;;;;;;72.82;53.20;;;;;;;9.47;100.00;99070.75;5022312;28;20379;-77
2022/11/17 06:58:30;;;;;;;76.30;54.70;;;;;;;9.04;100.00;98965.03;5007288;28;20053;-83
2022/11/17 07:01:07;;;;;;;102.10;58.60;;;;;;;9.27;100.00;98984.69;5008503;28;20050;-87
2022/11/17 07:03:37;;;;;;;81.00;52.50;;;;;;;9.23;100.00;98969.94;5006878;28;20055;-77
2022/11/17 07:06:06;;;;;;;79.95;54.67;;;;;;;9.12;100.00;98928.25;5007219;28;20054;-76
2022/11/17 07:08:33;;;;;;;85.40;56.22;;;;;;;9.23;100.00;98967.34;5005894;28;20040;-76
2022/11/17 07:11:10;;;;;;;76.30;52.35;;;;;;;8.95;100.00;98912.88;5007210;28;20040;-78
2022/11/17 07:13:36;;;;;;;77.20;53.85;;;;;;;9.07;100.00;98946.66;4996555;28;20050;-77
2022/11/17 07:16:26;;;;;;;83.35;53.53;;;;;;;9.33;100.00;98953.19;5007245;28;20184;-76
2022/11/17 07:18:52;;;;;;;77.65;54.00;;;;;;;9.47;100.00;98995.66;5005137;28;20150;-74
2022/11/17 07:21:18;;;;;;;75.13;52.75;;;;;;;9.72;100.00;99021.41;5005534;28;20045;-76
2022/11/17 07:23:46;;;;;;;85.95;53.60;;;;;;;9.84;100.00;99030.78;5008173;28;20127;-78
2022/11/17 07:26:13;;;;;;;92.88;51.33;;;;;;;9.78;100.00;99000.31;5016357;28;20033;-80
2022/11/17 07:28:38;;;;;;;87.32;55.78;;;;;;;9.62;100.00;98991.03;5016047;28;20040;-75
2022/11/17 07:31:06;;;;;;;83.40;52.53;;;;;;;9.21;100.00;98903.69;5010018;28;20050;-78
2022/11/17 07:33:32;;;;;;;75.78;55.90;;;;;;;9.51;100.00;98892.63;5010181;28;20128;-77
2022/11/17 07:36:08;;;;;;;74.80;53.78;;;;;;;9.82;100.00;98920.78;5007865;28;20065;-74
2022/11/17 07:38:35;;;;;;;87.90;53.70;;;;;;;9.39;100.00;98869.31;5002541;28;20102;-77
2022/11/17 07:41:01;;;;;;;74.70;48.67;;;;;;;10.13;100.00;98952.41;5010201;28;20048;-77
2022/11/17 07:43:27;;;;;;;84.15;50.53;;;;;;;10.21;100.00;98951.38;5006080;28;20641;-78
2022/11/17 07:45:53;;;;;;;79.28;52.90;;;;;;;10.00;100.00;98921.31;4989163;28;20050;-78
2022/11/17 07:48:18;;;;;;;83.75;53.45;;;;;;;10.30;100.00;98969.56;5005944;28;20489;-76
2022/11/17 07:50:43;;;;;;;75.68;49.72;;;;;;;10.00;100.00;98921.31;5004809;28;20056;-75
2022/11/17 07:53:09;;;;;;;64.50;46.42;;;;;;;9.97;100.00;98930.06;4998998;28;20072;-77
2022/11/17 07:55:34;;;;;;;82.15;52.83;;;;;;;9.96;100.00;98907.38;5000875;28;20065;-75
2022/11/17 07:58:00;;;;;;;79.03;53.30;;;;;;;10.42;100.00;98989.41;5006662;28;20054;-78
2022/11/17 08:00:29;;;;;;;78.10;53.17;;;;;;;10.08;100.00;98914.13;5000113;28;20049;-79
2022/11/17 08:02:55;;;;;;;86.13;57.13;;;;;;;10.52;100.00;98981.31;5004294;28;20049;-79
2022/11/17 08:05:20;;;;;;;94.10;57.35;;;;;;;10.70;100.00;99015.88;5008028;28;20033;-77
2022/11/17 08:07:54;;;;;;;79.30;55.75;;;;;;;10.80;100.00;99017.41;5005715;28;20093;-76
2022/11/17 08:10:20;;;;;;;80.93;57.20;;;;;;;10.75;100.00;98983.41;5000810;28;20050;-77
2022/11/17 08:12:49;;;;;;;84.82;61.75;;;;;;;10.73;100.00;98987.81;5003595;28;20665;-75
2022/11/17 08:15:14;;;;;;;87.15;59.92;;;;;;;10.35;100.00;98908.28;5002314;28;20559;-75
2022/11/17 08:17:40;;;;;;;90.25;64.07;;;;;;;10.87;100.00;98999.75;5005293;28;20029;-79
2022/11/17 08:20:06;;;;;;;96.10;63.85;;;;;;;10.75;100.00;99004.38;4985655;28;20496;-77
2022/11/17 08:22:33;;;;;;;81.78;59.47;;;;;;;10.84;100.00;99026.94;5001284;28;20062;-76
2022/11/17 08:24:58;;;;;;;70.22;53.85;;;;;;;10.04;100.00;98904.59;5005840;28;20057;-78
2022/11/17 08:27:24;;;;;;;74.88;46.17;;;;;;;10.12;100.00;98908.78;4995298;28;20417;-75
2022/11/17 08:29:49;;;;;;;79.97;51.42;;;;;;;10.99;100.00;99025.69;4999133;28;20488;-79
2022/11/17 08:32:15;;;;;;;75.20;51.72;;;;;;;10.77;100.00;98981.59;4986796;28;20111;-77
2022/11/17 08:34:40;;;;;;;74.35;48.90;;;;;;;11.16;100.00;99018.25;5003711;28;20104;-75
2022/11/17 08:37:06;;;;;;;77.63;47.83;;;;;;;10.31;100.00;98893.50;5007701;28;20045;-77
2022/11/17 08:39:31;;;;;;;76.72;48.38;;;;;;;11.05;100.00;99022.06;5003881;28;20057;-79
2022/11/17 08:41:57;;;;;;;79.28;46.45;;;;;;;11.29;100.00;99042.47;5004697;28;20042;-77
2022/11/17 08:44:22;;;;;;;78.43;48.63;;;;;;;11.22;100.00;99021.66;5005353;28;20449;-79
2022/11/17 08:46:48;;;;;;;76.72;42.20;;;;;;;10.46;100.00;98891.41;4986112;28;20423;-74
2022/11/17 08:49:14;;;;;;;66.90;43.90;;;;;;;11.22;100.00;99009.38;5002137;28;20061;-75
2022/11/17 08:51:42;;;;;;;61.38;39.63;;;;;;;11.49;100.00;99055.06;5006005;28;20045;-76
2022/11/17 08:54:10;;;;;;;51.65;35.08;;;;;;;11.51;100.00;99041.91;4998395;28;20086;-76
2022/11/17 08:56:36;;;;;;;50.35;33.85;;;;;;;11.59;100.00;99046.06;4999211;28;20053;-78
2022/11/17 08:59:01;;;;;;;60.72;31.38;;;;;;;11.21;99.87;98999.75;5005913;28;20037;-77
2022/11/17 09:01:27;;;;;;;64.13;34.80;;;;;;;11.19;100.00;98976.19;5005828;28;20064;-78
2022/11/17 09:03:52;;;;;;;55.63;34.28;;;;;;;11.24;99.69;99004.06;4988498;28;20104;-77
2022/11/17 09:06:18;;;;;;;51.45;31.67;;;;;;;11.45;100.00;99002.66;5003425;28;20081;-79
2022/11/17 09:08:45;;;;;;;39.53;28.20;;;;;;;10.78;99.31;98899.34;5003931;28;20073;-76
2022/11/17 09:11:11;;;;;;;37.05;26.38;;;;;;;11.61;98.63;99032.88;5004721;28;20041;-75
2022/11/17 09:13:38;;;;;;;33.55;24.80;;;;;;;11.68;98.65;99039.69;5000721;28;20808;-75
2022/11/17 09:16:08;;;;;;;40.28;25.73;;;;;;;11.02;98.52;98946.88;5003436;28;20053;-75
2022/11/17 09:18:36;;;;;;;39.00;23.67;;;;;;;11.70;98.35;99027.38;5002825;28;20061;-79
2022/11/17 09:21:05;;;;;;;39.28;25.90;;;;;;;11.72;99.17;99016.84;5000037;28;20170;-76
2022/11/17 09:23:30;;;;;;;35.20;27.15;;;;;;;11.11;98.58;98911.66;4985901;28;20034;-79
2022/11/17 09:25:57;;;;;;;36.45;24.00;;;;;;;10.68;98.82;98853.28;5006661;28;20042;-77
2022/11/17 09:28:25;;;;;;;30.00;24.48;;;;;;;10.88;99.29;98881.63;5004092;28;20501;-79
2022/11/17 09:30:52;;;;;;;50.00;28.52;;;;;;;11.71;99.68;98987.06;4982046;28;20509;-79
2022/11/17 09:33:18;;;;;;;34.97;24.73;;;;;;;11.98;100.00;98987.22;4987361;28;20119;-75
2022/11/17 09:35:44;;;;;;;45.42;32.03;;;;;;;11.86;100.00;98956.00;5003848;28;20129;-76
2022/11/17 09:38:09;;;;;;;39.80;29.52;;;;;;;11.66;99.65;98965.31;5003889;28;20029;-76
2022/11/17 09:40:39;;;;;;;44.80;29.77;;;;;;;11.95;100.00;98982.06;5002149;28;20417;-77
2022/11/17 09:43:41;;;;;;;34.05;26.77;;;;;;;11.42;100.00;98890.66;5004235;28;20046;-76
2022/11/17 09:46:16;;;;;;;38.88;25.45;;;;;;;11.71;100.00;98931.03;4938664;28;20107;-76
2022/11/17 09:49:20;;;;;;;41.42;25.85;;;;;;;11.82;100.00;98961.38;5006718;28;20064;-79
2022/11/17 09:51:49;;;;;;;42.42;27.83;;;;;;;11.73;100.00;98944.97;4999398;28;20061;-79
2022/11/17 09:54:53;;;;;;;38.22;25.98;;;;;;;11.99;100.00;98975.81;5001944;28;20160;-76
2022/11/17 09:57:41;;;;;;;32.45;23.75;;;;;;;11.25;100.00;98845.66;4993669;28;20054;-76
2022/11/17 10:00:21;;;;;;;39.33;25.98;;;;;;;11.86;100.00;98943.72;4988603;28;20078;-74
2022/11/17 10:02:47;;;;;;;36.22;24.92;;;;;;;11.60;100.00;98895.41;4965995;28;20140;-83
2022/11/17 10:05:30;;;;;;;37.10;27.20;;;;;;;10.97;100.00;98802.66;4985206;28;20827;-77
2022/11/17 10:08:10;;;;;;;35.78;24.95;;;;;;;11.95;100.00;98935.59;4986483;28;20065;-80
2022/11/17 10:10:43;;;;;;;37.03;25.25;;;;;;;12.21;100.00;98947.97;4987338;28;20141;-76
2022/11/17 10:13:15;;;;;;;31.75;24.40;;;;;;;12.33;100.00;98962.50;4986173;28;20100;-77
2022/11/17 10:15:47;;;;;;;37.13;27.40;;;;;;;12.45;100.00;98970.03;4985775;28;20047;-75
2022/11/17 10:18:14;;;;;;;36.00;26.70;;;;;;;11.89;100.00;98854.28;4988632;28;20049;-77
2022/11/17 10:20:42;;;;;;;34.83;26.35;;;;;;;12.48;100.00;98941.91;4989229;28;20038;-74
2022/11/17 10:23:16;;;;;;;37.40;24.33;;;;;;;12.04;100.00;98845.09;4984922;28;20088;-79
2022/11/17 10:25:44;;;;;;;35.60;24.08;;;;;;;12.46;100.00;98934.91;4984001;28;20170;-75
2022/11/17 10:28:27;;;;;;;34.28;21.70;;;;;;;12.88;99.61;98941.50;4986207;28;20042;-76
2022/11/17 10:31:02;;;;;;;37.53;24.88;;;;;;;13.19;99.14;98941.31;4984151;28;20054;-75
2022/11/17 10:33:48;;;;;;;33.40;24.00;;;;;;;13.01;98.96;98884.00;4987825;28;20053;-77
2022/11/17 10:36:25;;;;;;;37.65;25.85;;;;;;;13.25;98.93;98924.41;4988627;28;20085;-76
2022/11/17 10:38:53;;;;;;;29.95;21.63;;;;;;;12.86;100.00;98916.97;4969851;28;20133;-74
2022/11/17 10:41:40;;;;;;;34.00;23.38;;;;;;;12.87;100.00;98909.00;4989213;28;20038;-75
2022/11/17 10:44:16;;;;;;;31.50;21.05;;;;;;;12.96;100.00;98883.31;4985107;28;20046;-76
2022/11/17 10:46:57;;;;;;;33.78;22.60;;;;;;;13.12;100.00;98891.53;4984856;28;20042;-76
2022/11/17 10:49:28;;;;;;;30.30;23.63;;;;;;;12.68;100.00;98821.06;4986561;28;20077;-76
2022/11/17 10:52:17;;;;;;;26.65;22.52;;;;;;;13.19;100.00;98924.66;4984793;28;20057;-76
2022/11/17 10:54:43;;;;;;;31.25;24.13;;;;;;;12.55;100.00;98856.59;4985735;28;20082;-82
2022/11/17 10:57:23;;;;;;;28.85;20.55;;;;;;;12.08;100.00;98823.06;4977507;28;20768;-78
2022/11/17 10:59:56;;;;;;;35.30;22.33;;;;;;;12.26;100.00;98837.38;5005868;28;20135;-78
2022/11/17 11:02:27;;;;;;;31.45;21.27;;;;;;;12.88;100.00;98923.06;5007639;28;20518;-82
2022/11/17 11:05:17;;;;;;;31.15;21.75;;;;;;;12.94;100.00;98925.47;5004810;28;20036;-78
2022/11/17 11:07:43;;;;;;;29.40;19.42;;;;;;;12.42;100.00;98892.97;5006193;28;20054;-75
2022/11/17 11:10:30;;;;;;;26.75;20.30;;;;;;;12.34;100.00;98848.53;5006832;28;20144;-78
2022/11/17 11:12:58;;;;;;;30.17;18.58;;;;;;;12.94;100.00;98916.72;5016452;28;20055;-82
2022/11/17 11:15:30;;;;;;;26.00;18.52;;;;;;;12.45;100.00;98817.47;5008177;28;20053;-79
2022/11/17 11:17:56;;;;;;;33.30;19.90;;;;;;;13.15;100.00;98937.03;5002808;28;20041;-80
2022/11/17 11:20:38;;;;;;;32.92;20.33;;;;;;;12.30;100.00;98844.25;4980175;28;20041;-80
2022/11/17 11:23:43;;;;;;;30.83;21.05;;;;;;;12.73;100.00;98918.28;5004182;28;20033;-81
2022/11/17 11:26:27;;;;;;;24.58;18.77;;;;;;;12.74;100.00;98947.19;4939686;28;20057;-81
2022/11/17 11:29:03;;;;;;;26.77;19.10;;;;;;;12.34;100.00;98880.09;5004295;28;20525;-82
2022/11/17 11:31:49;;;;;;;26.15;21.80;;;;;;;11.52;100.00;98763.44;5003103;28;20069;-79
2022/11/17 11:34:17;;;;;;;30.95;21.13;;;;;;;12.44;100.00;98913.06;5008511;28;20125;-80
2022/11/17 11:37:11;;;;;;;30.30;21.95;;;;;;;12.51;100.00;98963.72;4988369;28;20416;-83
2022/11/17 11:40:09;;;;;;;33.00;24.65;;;;;;;12.00;100.00;98888.16;5005104;28;20049;-80
2022/11/17 11:42:47;;;;;;;34.03;24.67;;;;;;;12.52;100.00;98967.19;5003197;28;20053;-82
2022/11/17 11:45:37;;;;;;;29.40;23.35;;;;;;;12.37;100.00;98985.19;5006120;28;20125;-79
2022/11/17 11:48:05;;;;;;;36.50;23.98;;;;;;;12.21;100.00;98987.41;4995329;28;20057;-76
2022/11/17 11:50:53;;;;;;;43.92;26.92;;;;;;;12.07;100.00;98970.31;5002580;28;20444;-79
2022/11/17 11:53:37;;;;;;;50.63;30.50;;;;;;;12.07;100.00;98992.22;4967013;28;20045;-74
2022/11/17 11:56:24;;;;;;;38.80;28.65;;;;;;;12.21;100.00;98995.31;5001882;28;20127;-79
2022/11/17 11:59:00;;;;;;;38.33;29.25;;;;;;;11.32;100.00;98863.81;4969308;28;20073;-80